OCN76 EDDF-CYYC
Flight info
| Callsign | OCN76 |
|---|---|
| Flight time | N/A |
| Altitude | 24000 |
| Route | MARUN7F/25C MARUN Y152 ARPEG/N0460F360 Z850 ABILU DCT ATPAQ/N0465F380 DCT REXMI DCT KARLI DCT GUNPA/M082F380 DCT 65N010W 6730N02000W 6930N03000W 71N040W/M081F400 72N060W DCT INGUM/N0472F400 DCT 7130N07000W 7030N08000W 6830N09000W 65N100W 62N105W DCT YMM Q856 LETRM/N0453F390 DCT IGVUX/N0452F400 Q882 BIRKO BIRKO6 |
| Aircraft | A333/H-SDE2E3FGHIJ3J4J5LM1OP2RWXYZ/LB2D1 |
Departure
| Time | 2026-05-04 07:18 |
|---|---|
| Airport | Frankfurt Main Airport (EDDF) |
Arrival
| Time | N/A |
|---|---|
| Airport | Calgary International Airport (CYYC) |
| Time | Latitude | Longitude | Altitude | Speed | Heading |
|---|---|---|---|---|---|
| 2026-05-04 07:04 | 50.04910 | 8.58064 | 365 ft | 0 kts | 339° |
| 2026-05-04 07:10 | 50.04893 | 8.58074 | 370 ft | 4 kts | 339° |
| 2026-05-04 07:10 | 50.04868 | 8.58088 | 367 ft | 4 kts | 339° |
| 2026-05-04 07:12 | 50.04823 | 8.58137 | 366 ft | 0 kts | 70° |
| 2026-05-04 07:14 | 50.04856 | 8.58277 | 367 ft | 13 kts | 69° |
| 2026-05-04 07:14 | 50.04887 | 8.58407 | 370 ft | 13 kts | 69° |
| 2026-05-04 07:15 | 50.04919 | 8.58542 | 368 ft | 14 kts | 69° |
| 2026-05-04 07:15 | 50.04904 | 8.58664 | 371 ft | 11 kts | 140° |
| 2026-05-04 07:15 | 50.04844 | 8.58708 | 371 ft | 8 kts | 158° |
| 2026-05-04 07:15 | 50.04800 | 8.58735 | 374 ft | 5 kts | 159° |
| 2026-05-04 07:16 | 50.04763 | 8.58755 | 374 ft | 7 kts | 161° |
| 2026-05-04 07:16 | 50.04718 | 8.58767 | 375 ft | 7 kts | 178° |
| 2026-05-04 07:16 | 50.04669 | 8.58762 | 374 ft | 7 kts | 184° |
| 2026-05-04 07:16 | 50.04610 | 8.58741 | 376 ft | 11 kts | 206° |
| 2026-05-04 07:17 | 50.04545 | 8.58663 | 378 ft | 14 kts | 219° |
| 2026-05-04 07:17 | 50.04475 | 8.58536 | 375 ft | 18 kts | 246° |
| 2026-05-04 07:17 | 50.04402 | 8.58230 | 375 ft | 53 kts | 249° |
| 2026-05-04 07:17 | 50.04204 | 8.57409 | 373 ft | 108 kts | 249° |
| 2026-05-04 07:18 | 50.03883 | 8.56059 | 363 ft | 157 kts | 250° |
| 2026-05-04 07:18 | 50.03463 | 8.54307 | 647 ft | 182 kts | 248° |
| 2026-05-04 07:18 | 50.02991 | 8.52350 | 1117 ft | 201 kts | 250° |
| 2026-05-04 07:18 | 50.02746 | 8.50252 | 2142 ft | 197 kts | 268° |
| 2026-05-04 07:19 | 50.02831 | 8.48052 | 2721 ft | 214 kts | 274° |
| 2026-05-04 07:19 | 50.03022 | 8.45676 | 3301 ft | 227 kts | 276° |
| 2026-05-04 07:19 | 50.03329 | 8.43233 | 4029 ft | 234 kts | 287° |
| 2026-05-04 07:19 | 50.04206 | 8.41065 | 4647 ft | 247 kts | 312° |
| 2026-05-04 07:20 | 50.05561 | 8.39285 | 5127 ft | 262 kts | 320° |
| 2026-05-04 07:20 | 50.07044 | 8.37574 | 5773 ft | 267 kts | 321° |
| 2026-05-04 07:20 | 50.08548 | 8.35845 | 6496 ft | 270 kts | 321° |
| 2026-05-04 07:20 | 50.10094 | 8.34147 | 7200 ft | 275 kts | 326° |
| 2026-05-04 07:22 | 50.24366 | 8.38234 | 10916 ft | 353 kts | 15° |
| 2026-05-04 07:22 | 50.26762 | 8.39378 | 11290 ft | 365 kts | 15° |
| 2026-05-04 07:23 | 50.29207 | 8.40569 | 11876 ft | 370 kts | 17° |
| 2026-05-04 07:23 | 50.31622 | 8.41856 | 12505 ft | 373 kts | 18° |
| 2026-05-04 07:23 | 50.34086 | 8.43201 | 13148 ft | 377 kts | 18° |
| 2026-05-04 07:23 | 50.36569 | 8.44561 | 13831 ft | 379 kts | 18° |
| 2026-05-04 07:24 | 50.39070 | 8.45930 | 14385 ft | 383 kts | 18° |
| 2026-05-04 07:24 | 50.41606 | 8.47317 | 14898 ft | 388 kts | 18° |
| 2026-05-04 07:24 | 50.44167 | 8.48720 | 15433 ft | 392 kts | 18° |
| 2026-05-04 07:24 | 50.46756 | 8.50133 | 15960 ft | 396 kts | 17° |
| 2026-05-04 07:25 | 50.49391 | 8.51454 | 16504 ft | 400 kts | 15° |
| 2026-05-04 07:26 | 50.67767 | 8.60253 | 19681 ft | 426 kts | 15° |
| 2026-05-04 07:27 | 50.70609 | 8.61622 | 20138 ft | 428 kts | 15° |
| 2026-05-04 07:27 | 50.73470 | 8.63002 | 20579 ft | 431 kts | 15° |
| 2026-05-04 07:27 | 50.76389 | 8.64124 | 21004 ft | 432 kts | 6° |
| 2026-05-04 07:27 | 50.79381 | 8.64268 | 21425 ft | 430 kts | 351° |
| 2026-05-04 07:28 | 50.82275 | 8.63229 | 21856 ft | 426 kts | 335° |
| 2026-05-04 07:28 | 50.84882 | 8.61087 | 22279 ft | 421 kts | 320° |
| 2026-05-04 07:28 | 50.87052 | 8.58114 | 22685 ft | 418 kts | 311° |
| 2026-05-04 07:28 | 50.89038 | 8.54766 | 23114 ft | 418 kts | 307° |
| 2026-05-04 07:29 | 50.90934 | 8.51253 | 23513 ft | 420 kts | 305° |
| 2026-05-04 07:29 | 50.92789 | 8.47670 | 23858 ft | 422 kts | 304° |
| 2026-05-04 07:29 | 50.94650 | 8.44044 | 24192 ft | 425 kts | 304° |
| 2026-05-04 07:29 | 50.96525 | 8.40414 | 24565 ft | 426 kts | 305° |
| 2026-05-04 07:30 | 50.98420 | 8.36783 | 24940 ft | 428 kts | 305° |
| 2026-05-04 07:30 | 51.00395 | 8.33216 | 25285 ft | 433 kts | 310° |
| 2026-05-04 07:30 | 51.02702 | 8.30094 | 25605 ft | 440 kts | 320° |
| 2026-05-04 07:30 | 51.05275 | 8.27413 | 25986 ft | 444 kts | 323° |
| 2026-05-04 07:31 | 51.07932 | 8.24895 | 26362 ft | 446 kts | 325° |
| 2026-05-04 07:31 | 51.10637 | 8.22468 | 26700 ft | 448 kts | 326° |
| 2026-05-04 07:33 | 51.29973 | 8.05374 | 29040 ft | 459 kts | 326° |
| 2026-05-04 07:33 | 51.32761 | 8.02866 | 29397 ft | 460 kts | 326° |
| 2026-05-04 07:33 | 51.35556 | 8.00347 | 29726 ft | 462 kts | 326° |
| 2026-05-04 07:33 | 51.38397 | 7.97919 | 30037 ft | 466 kts | 330° |
| 2026-05-04 07:34 | 51.41447 | 7.96041 | 30280 ft | 474 kts | 339° |
| 2026-05-04 07:34 | 51.44694 | 7.94898 | 30507 ft | 481 kts | 346° |
| 2026-05-04 07:34 | 51.48022 | 7.94113 | 30733 ft | 485 kts | 348° |
| 2026-05-04 07:34 | 51.51386 | 7.93470 | 30965 ft | 488 kts | 349° |
| 2026-05-04 07:35 | 51.54767 | 7.92899 | 31273 ft | 489 kts | 349° |
| 2026-05-04 07:35 | 51.58152 | 7.92355 | 31606 ft | 488 kts | 349° |
| 2026-05-04 07:35 | 51.61530 | 7.91810 | 31956 ft | 488 kts | 349° |
| 2026-05-04 07:35 | 51.64903 | 7.91254 | 32264 ft | 488 kts | 349° |
| 2026-05-04 07:36 | 51.68276 | 7.90683 | 32561 ft | 487 kts | 349° |
| 2026-05-04 07:36 | 51.71650 | 7.90102 | 32849 ft | 487 kts | 349° |
| 2026-05-04 07:38 | 51.95245 | 7.85949 | 34746 ft | 486 kts | 349° |
| 2026-05-04 07:38 | 51.98607 | 7.85354 | 34949 ft | 487 kts | 349° |
| 2026-05-04 07:38 | 52.05351 | 7.84156 | 34998 ft | 487 kts | 349° |
| 2026-05-04 07:39 | 52.12040 | 7.82969 | 34991 ft | 486 kts | 349° |
| 2026-05-04 07:39 | 52.18761 | 7.81770 | 34993 ft | 486 kts | 349° |
| 2026-05-04 07:40 | 52.25480 | 7.80567 | 34992 ft | 486 kts | 349° |
| 2026-05-04 07:40 | 52.32196 | 7.79362 | 34987 ft | 484 kts | 349° |
| 2026-05-04 07:41 | 52.38887 | 7.78158 | 34988 ft | 483 kts | 349° |
| 2026-05-04 07:41 | 52.45574 | 7.76951 | 34982 ft | 484 kts | 349° |
| 2026-05-04 07:42 | 52.52267 | 7.75744 | 34998 ft | 484 kts | 351° |
| 2026-05-04 07:42 | 52.59003 | 7.75406 | 34977 ft | 483 kts | 355° |
| 2026-05-04 07:43 | 52.65719 | 7.75346 | 34976 ft | 483 kts | 355° |
| 2026-05-04 07:43 | 52.72436 | 7.75345 | 34974 ft | 483 kts | 355° |
| 2026-05-04 07:44 | 52.79156 | 7.75340 | 34979 ft | 482 kts | 355° |
| 2026-05-04 07:44 | 52.85850 | 7.75326 | 34977 ft | 480 kts | 355° |
| 2026-05-04 07:45 | 52.92533 | 7.75306 | 34979 ft | 480 kts | 355° |
| 2026-05-04 07:45 | 52.99217 | 7.75284 | 34979 ft | 480 kts | 355° |
| 2026-05-04 07:46 | 53.05896 | 7.75263 | 34976 ft | 479 kts | 355° |
| 2026-05-04 07:46 | 53.12559 | 7.75244 | 34976 ft | 479 kts | 355° |
| 2026-05-04 07:47 | 53.19218 | 7.75223 | 34975 ft | 479 kts | 355° |
| 2026-05-04 07:49 | 53.45858 | 7.75140 | 35006 ft | 479 kts | 355° |
| 2026-05-04 07:49 | 53.52516 | 7.75119 | 34991 ft | 479 kts | 355° |
| 2026-05-04 07:50 | 53.59186 | 7.75097 | 34985 ft | 480 kts | 355° |
| 2026-05-04 07:50 | 53.65826 | 7.75077 | 34997 ft | 480 kts | 355° |
| 2026-05-04 07:51 | 53.72550 | 7.75056 | 34981 ft | 480 kts | 355° |
| 2026-05-04 07:51 | 53.79236 | 7.75035 | 34987 ft | 481 kts | 355° |
| 2026-05-04 07:52 | 53.85935 | 7.75013 | 34991 ft | 482 kts | 355° |
| 2026-05-04 07:52 | 53.92596 | 7.74992 | 34993 ft | 482 kts | 355° |
| 2026-05-04 07:54 | 54.19404 | 7.74907 | 34996 ft | 481 kts | 355° |
| 2026-05-04 07:55 | 54.26100 | 7.74885 | 35013 ft | 481 kts | 355° |
| 2026-05-04 07:55 | 54.32795 | 7.74864 | 34993 ft | 481 kts | 355° |
| 2026-05-04 07:56 | 54.39480 | 7.74842 | 34993 ft | 480 kts | 355° |
| 2026-05-04 07:56 | 54.46169 | 7.74820 | 34990 ft | 481 kts | 355° |
| 2026-05-04 07:57 | 54.52855 | 7.74798 | 34998 ft | 481 kts | 355° |
| 2026-05-04 07:57 | 54.59540 | 7.74776 | 34999 ft | 480 kts | 355° |
| 2026-05-04 07:58 | 54.66226 | 7.74754 | 34996 ft | 481 kts | 355° |
| 2026-05-04 07:58 | 54.72916 | 7.74732 | 34996 ft | 481 kts | 355° |
| 2026-05-04 07:59 | 54.79602 | 7.74710 | 34998 ft | 480 kts | 355° |
| 2026-05-04 07:59 | 54.86285 | 7.74688 | 34992 ft | 480 kts | 355° |
| 2026-05-04 08:00 | 54.92963 | 7.74665 | 34994 ft | 480 kts | 355° |
| 2026-05-04 08:02 | 55.16337 | 7.57477 | 34992 ft | 457 kts | 324° |
| 2026-05-04 08:02 | 55.21757 | 7.51627 | 34994 ft | 458 kts | 324° |
| 2026-05-04 08:03 | 55.27187 | 7.45804 | 34990 ft | 458 kts | 324° |
| 2026-05-04 08:03 | 55.32622 | 7.39981 | 34997 ft | 458 kts | 324° |
| 2026-05-04 08:04 | 55.38013 | 7.34191 | 34991 ft | 457 kts | 324° |
| 2026-05-04 08:04 | 55.43434 | 7.28346 | 34994 ft | 457 kts | 324° |
| 2026-05-04 08:05 | 55.48851 | 7.22485 | 34993 ft | 457 kts | 324° |
| 2026-05-04 08:05 | 55.54260 | 7.16614 | 34991 ft | 456 kts | 324° |
| 2026-05-04 08:06 | 55.59655 | 7.10739 | 34992 ft | 455 kts | 324° |
| 2026-05-04 08:06 | 55.65042 | 7.04852 | 34998 ft | 455 kts | 324° |
| 2026-05-04 08:08 | 55.86531 | 6.81178 | 34989 ft | 454 kts | 324° |
| 2026-05-04 08:11 | 56.10600 | 6.54287 | 34990 ft | 453 kts | 324° |
| 2026-05-04 08:11 | 56.18557 | 6.45309 | 34988 ft | 451 kts | 324° |
| 2026-05-04 08:12 | 56.23864 | 6.39296 | 34993 ft | 451 kts | 324° |
| 2026-05-04 08:12 | 56.29163 | 6.33272 | 34988 ft | 451 kts | 324° |
| 2026-05-04 08:13 | 56.34454 | 6.27237 | 34988 ft | 449 kts | 325° |
| 2026-05-04 08:13 | 56.39722 | 6.21209 | 34985 ft | 448 kts | 325° |
| 2026-05-04 08:14 | 56.44092 | 6.16192 | 34997 ft | 447 kts | 325° |
| 2026-05-04 08:16 | 56.64959 | 5.92045 | 34982 ft | 445 kts | 325° |
| 2026-05-04 08:16 | 56.70199 | 5.85932 | 34982 ft | 444 kts | 325° |
| 2026-05-04 08:17 | 56.75361 | 5.79888 | 34978 ft | 443 kts | 326° |
| 2026-05-04 08:17 | 56.80515 | 5.73835 | 34980 ft | 439 kts | 326° |
| 2026-05-04 08:19 | 57.01030 | 5.49539 | 34979 ft | 439 kts | 325° |
| 2026-05-04 08:20 | 57.06127 | 5.43447 | 34962 ft | 436 kts | 325° |
| 2026-05-04 08:20 | 57.11201 | 5.37360 | 34963 ft | 435 kts | 325° |
| 2026-05-04 08:21 | 57.16272 | 5.31256 | 34962 ft | 435 kts | 325° |
| 2026-05-04 08:21 | 57.21340 | 5.25137 | 34977 ft | 435 kts | 325° |
| 2026-05-04 08:22 | 57.26407 | 5.18999 | 34975 ft | 435 kts | 325° |